Time;durP1;ratioP1;P1;durP2;ratioP2;P2;SDS_P1;SDS_P2;PMS_P1;PMS_P2;Temp;Humidity;BMP_temperature;BMP_pressure;BME280_temperature;BME280_humidity;BME280_pressure;Samples;Min_cycle;Max_cycle;Signal;HPM_P1;HPM_P2
2022/01/31 00:00:58;;;;;;;15.85;2.70;;;;;;;5.82;58.83;101193.25;5007803;28;20124;-75
2022/01/31 00:03:24;;;;;;;27.25;4.10;;;;;;;5.40;60.17;101189.91;5001646;28;20120;-75
2022/01/31 00:05:51;;;;;;;32.35;3.13;;;;;;;5.64;59.51;101181.56;4985068;28;20516;-75
2022/01/31 00:08:22;;;;;;;23.40;3.15;;;;;;;5.83;58.71;101175.00;4982231;28;20132;-75
2022/01/31 00:10:49;;;;;;;24.35;3.80;;;;;;;5.53;59.66;101167.09;4987975;28;20475;-75
2022/01/31 00:13:21;;;;;;;22.02;3.53;;;;;;;5.31;60.75;101164.16;4984141;28;20565;-75
2022/01/31 00:15:54;;;;;;;18.35;2.67;;;;;;;5.32;60.43;101158.06;4983617;28;20054;-74
2022/01/31 00:18:20;;;;;;;29.25;3.45;;;;;;;5.44;60.37;101155.16;4984954;28;20498;-75
2022/01/31 00:20:47;;;;;;;20.45;3.10;;;;;;;5.32;60.49;101160.66;4985034;28;20510;-75
2022/01/31 00:23:13;;;;;;;23.05;3.25;;;;;;;5.49;60.12;101145.50;4975823;28;20078;-75
2022/01/31 00:25:39;;;;;;;26.27;3.33;;;;;;;5.40;60.07;101143.97;4987178;28;20085;-74
2022/01/31 00:28:06;;;;;;;18.50;3.75;;;;;;;5.46;60.16;101137.78;4968401;28;20070;-75
2022/01/31 00:30:32;;;;;;;10.43;2.80;;;;;;;5.27;60.53;101131.31;4968782;28;20066;-74
2022/01/31 00:33:00;;;;;;;18.95;4.25;;;;;;;5.46;60.62;101119.56;4981089;28;20081;-75
2022/01/31 00:35:27;;;;;;;17.85;3.35;;;;;;;5.52;60.08;101103.81;4985522;28;20042;-74
2022/01/31 00:37:53;;;;;;;26.23;4.15;;;;;;;5.64;59.60;101100.91;4981109;28;20805;-74
2022/01/31 00:40:20;;;;;;;26.50;3.50;;;;;;;5.49;59.86;101085.69;4990600;28;20115;-74
2022/01/31 00:42:46;;;;;;;18.60;3.13;;;;;;;5.48;60.41;101077.91;4994524;28;20148;-74
2022/01/31 00:45:17;;;;;;;23.60;4.07;;;;;;;5.60;59.97;101072.41;4987793;28;20054;-74
2022/01/31 00:47:47;;;;;;;17.45;3.80;;;;;;;5.32;60.52;101069.66;4992109;28;20203;-74
2022/01/31 00:50:18;;;;;;;23.50;4.32;;;;;;;5.31;60.60;101065.34;4985615;28;20050;-74
2022/01/31 00:52:46;;;;;;;26.50;3.45;;;;;;;5.05;61.50;101068.59;4999711;28;20050;-75
2022/01/31 00:55:14;;;;;;;23.88;2.92;;;;;;;5.18;61.17;101063.91;5006542;28;20077;-74
2022/01/31 00:57:41;;;;;;;12.52;2.83;;;;;;;5.13;61.52;101069.25;4998271;28;20077;-74
2022/01/31 01:00:09;;;;;;;15.35;2.95;;;;;;;5.24;61.01;101064.66;4981624;28;20074;-74
2022/01/31 01:02:35;;;;;;;16.83;3.67;;;;;;;5.15;60.78;101056.19;4983104;28;20054;-74
2022/01/31 01:05:01;;;;;;;17.63;3.33;;;;;;;5.05;61.50;101057.31;4985272;28;20058;-74
2022/01/31 01:07:29;;;;;;;20.50;2.58;;;;;;;4.86;61.78;101049.09;4979819;28;20112;-74
2022/01/31 01:09:55;;;;;;;21.98;3.17;;;;;;;4.88;61.72;101037.78;4989478;28;20081;-74
2022/01/31 01:12:22;;;;;;;19.05;3.30;;;;;;;5.20;60.91;101021.41;4991154;28;20043;-74
2022/01/31 01:14:49;;;;;;;15.95;2.30;;;;;;;5.13;61.02;101025.06;4988665;28;20439;-74
2022/01/31 01:17:16;;;;;;;18.15;2.78;;;;;;;5.29;60.64;101008.16;4981914;28;20042;-74
2022/01/31 01:19:43;;;;;;;16.52;2.65;;;;;;;5.08;61.01;101007.88;4986700;28;20418;-74
2022/01/31 01:22:10;;;;;;;15.27;3.35;;;;;;;5.06;61.42;100994.06;4993603;28;20683;-74
2022/01/31 01:24:38;;;;;;;21.33;2.88;;;;;;;5.21;61.01;100998.88;4998789;28;20396;-74
2022/01/31 01:27:07;;;;;;;18.77;3.40;;;;;;;5.19;61.21;100993.72;4996114;28;20417;-74
2022/01/31 01:29:34;;;;;;;25.58;3.08;;;;;;;4.89;62.01;100986.69;5005991;28;20070;-74
2022/01/31 01:32:00;;;;;;;28.25;4.18;;;;;;;5.21;61.34;100985.88;4997555;28;20050;-74
2022/01/31 01:34:31;;;;;;;14.35;2.97;;;;;;;5.15;61.08;100981.69;4979636;28;20085;-74
2022/01/31 01:36:58;;;;;;;21.40;4.72;;;;;;;4.90;61.83;100970.19;4981645;28;20494;-74
2022/01/31 01:39:26;;;;;;;23.23;2.88;;;;;;;5.10;61.06;100960.13;4986614;28;20442;-74
2022/01/31 01:41:54;;;;;;;20.05;3.60;;;;;;;5.22;60.83;100951.16;4983365;28;20198;-74
2022/01/31 01:44:38;;;;;;;18.15;3.50;;;;;;;5.04;61.15;100951.66;4991510;28;20105;-74
2022/01/31 01:47:05;;;;;;;21.42;4.72;;;;;;;5.10;61.07;100946.31;4982576;28;20569;-74
2022/01/31 01:49:31;;;;;;;15.35;2.97;;;;;;;5.11;61.05;100932.41;4971172;28;20462;-74
2022/01/31 01:51:58;;;;;;;23.17;3.55;;;;;;;5.08;60.99;100915.16;4983219;28;20100;-74
2022/01/31 01:54:24;;;;;;;16.58;2.92;;;;;;;5.16;60.96;100902.81;4994898;28;20466;-74
2022/01/31 01:56:51;;;;;;;17.95;3.58;;;;;;;5.22;60.54;100886.19;4982649;28;20051;-74
2022/01/31 01:59:18;;;;;;;24.02;3.60;;;;;;;5.29;60.35;100879.91;5004348;28;20046;-74
2022/01/31 02:01:45;;;;;;;25.60;3.63;;;;;;;5.17;60.30;100869.88;5007122;28;20093;-74
2022/01/31 02:04:11;;;;;;;18.58;2.55;;;;;;;5.25;60.38;100867.91;4986094;28;20046;-74
2022/01/31 02:06:40;;;;;;;22.35;3.25;;;;;;;5.34;60.25;100862.44;4982653;28;20099;-74
2022/01/31 02:09:06;;;;;;;16.27;4.63;;;;;;;5.14;60.82;100855.19;4983741;28;20050;-74
2022/01/31 02:11:32;;;;;;;26.08;4.35;;;;;;;4.24;63.93;100845.47;4989520;28;20042;-74
2022/01/31 02:13:59;;;;;;;19.85;3.00;;;;;;;4.23;64.35;100835.97;4984556;28;20186;-74
2022/01/31 02:16:26;;;;;;;26.38;3.33;;;;;;;4.21;64.57;100824.78;4989729;28;20140;-75
2022/01/31 02:18:54;;;;;;;20.98;3.47;;;;;;;3.83;66.03;100823.06;4988080;28;20526;-75
2022/01/31 02:21:22;;;;;;;21.85;3.72;;;;;;;3.51;67.42;100813.41;4989855;28;20065;-75
2022/01/31 02:23:49;;;;;;;22.73;3.58;;;;;;;3.47;68.34;100803.16;4998692;28;20112;-75
2022/01/31 02:26:15;;;;;;;19.58;2.70;;;;;;;3.73;67.74;100806.03;5009145;28;20056;-75
2022/01/31 02:28:42;;;;;;;20.45;4.05;;;;;;;3.72;67.58;100792.19;5007192;28;20050;-74
2022/01/31 02:31:09;;;;;;;21.42;3.20;;;;;;;3.83;67.24;100790.22;5001626;28;20155;-73
2022/01/31 02:33:35;;;;;;;18.70;3.60;;;;;;;3.91;67.12;100782.25;4997248;28;20093;-73
2022/01/31 02:36:04;;;;;;;25.67;3.85;;;;;;;3.99;66.89;100766.50;4974301;28;20039;-74
2022/01/31 02:38:32;;;;;;;35.13;5.00;;;;;;;3.53;67.89;100764.97;4976938;28;20078;-74
2022/01/31 02:40:59;;;;;;;37.47;3.38;;;;;;;3.34;68.83;100753.31;4988879;28;20057;-75
2022/01/31 02:43:28;;;;;;;20.83;3.17;;;;;;;3.34;69.46;100737.75;5006706;28;20046;-75
2022/01/31 02:45:54;;;;;;;14.38;2.83;;;;;;;3.31;69.26;100720.53;4984025;28;20077;-75
2022/01/31 02:48:23;;;;;;;17.50;4.32;;;;;;;3.39;69.25;100704.81;4978748;28;20495;-75
2022/01/31 02:50:51;;;;;;;23.55;3.38;;;;;;;3.78;67.48;100685.72;4983779;28;20141;-75
2022/01/31 02:53:24;;;;;;;14.27;3.53;;;;;;;3.33;69.28;100679.03;4988659;28;20050;-75
2022/01/31 02:55:53;;;;;;;22.25;3.65;;;;;;;3.22;70.05;100681.00;4988756;28;20423;-75
2022/01/31 02:58:20;;;;;;;24.42;4.18;;;;;;;3.09;70.44;100670.09;4985762;28;20046;-74
2022/01/31 03:00:47;;;;;;;35.03;4.32;;;;;;;3.28;70.13;100652.38;4995489;28;20123;-75
2022/01/31 03:03:13;;;;;;;23.33;3.60;;;;;;;2.69;71.57;100640.75;5000953;28;20100;-75
2022/01/31 03:05:40;;;;;;;26.10;2.85;;;;;;;2.78;71.60;100645.72;4981551;28;20050;-75
2022/01/31 03:08:07;;;;;;;14.80;2.75;;;;;;;3.00;70.59;100612.44;4981731;28;20098;-75
2022/01/31 03:10:33;;;;;;;18.80;3.25;;;;;;;3.02;71.28;100626.22;4987327;28;20105;-75
2022/01/31 03:13:01;;;;;;;18.88;3.55;;;;;;;3.04;70.81;100612.34;4983735;28;20066;-75
2022/01/31 03:15:28;;;;;;;23.67;4.35;;;;;;;2.61;72.13;100615.03;4989333;28;20463;-75
2022/01/31 03:17:54;;;;;;;25.77;3.88;;;;;;;2.81;71.68;100617.19;4985624;28;20076;-75
2022/01/31 03:20:23;;;;;;;19.92;3.15;;;;;;;2.80;71.36;100605.13;4995078;28;20039;-75
2022/01/31 03:22:50;;;;;;;22.08;3.63;;;;;;;2.92;71.05;100594.47;4986229;28;20047;-75
2022/01/31 03:25:17;;;;;;;22.55;3.92;;;;;;;3.23;69.75;100579.94;4988928;28;20069;-75
2022/01/31 03:27:46;;;;;;;23.98;4.05;;;;;;;3.05;70.39;100571.75;4990880;28;20047;-75
2022/01/31 03:30:17;;;;;;;17.98;3.15;;;;;;;3.06;70.36;100582.09;4982152;28;20050;-75
2022/01/31 03:32:44;;;;;;;22.15;3.55;;;;;;;3.30;69.33;100586.66;4975221;28;20101;-76
2022/01/31 03:35:11;;;;;;;10.00;2.63;;;;;;;3.20;70.27;100573.97;4991835;28;20520;-75
2022/01/31 03:37:37;;;;;;;24.00;3.50;;;;;;;3.24;69.61;100560.91;4989320;28;20132;-76
2022/01/31 03:40:06;;;;;;;20.77;5.43;;;;;;;3.23;69.94;100554.03;4990282;28;20109;-74
2022/01/31 03:42:33;;;;;;;22.80;2.88;;;;;;;2.78;71.41;100555.97;4987004;28;20133;-75
2022/01/31 03:44:59;;;;;;;15.05;2.88;;;;;;;3.38;70.16;100532.06;4992361;28;20043;-75
2022/01/31 03:47:27;;;;;;;24.38;3.22;;;;;;;3.15;70.70;100534.38;4983327;28;20042;-75
2022/01/31 03:49:54;;;;;;;24.73;3.03;;;;;;;2.90;71.46;100527.19;4990077;28;20082;-74
2022/01/31 03:52:21;;;;;;;27.98;4.05;;;;;;;2.99;71.22;100514.94;4992307;28;20101;-75
2022/01/31 03:54:48;;;;;;;20.52;4.30;;;;;;;3.01;70.99;100518.31;4992673;28;20201;-75
2022/01/31 03:57:14;;;;;;;14.80;3.65;;;;;;;2.97;71.50;100514.94;4996992;28;20382;-74
2022/01/31 03:59:41;;;;;;;24.08;3.85;;;;;;;3.20;70.46;100488.47;4996982;28;20042;-74
2022/01/31 04:02:08;;;;;;;29.70;4.68;;;;;;;2.92;71.36;100496.94;4991309;28;20108;-74
2022/01/31 04:04:36;;;;;;;25.10;4.55;;;;;;;2.88;71.60;100478.94;4991885;28;20073;-74
2022/01/31 04:07:03;;;;;;;21.92;3.63;;;;;;;3.18;70.80;100466.97;4986454;28;20486;-74
2022/01/31 04:09:30;;;;;;;30.70;4.03;;;;;;;3.74;68.69;100466.25;4991428;28;20046;-74
2022/01/31 04:11:56;;;;;;;14.32;2.55;;;;;;;3.72;69.10;100454.25;4992418;28;20120;-74
2022/01/31 04:14:26;;;;;;;21.38;3.28;;;;;;;3.84;68.03;100444.34;4990206;28;20057;-74
2022/01/31 04:16:54;;;;;;;20.58;3.30;;;;;;;3.70;69.02;100435.25;4978535;28;20137;-74
2022/01/31 04:19:20;;;;;;;22.92;3.65;;;;;;;3.78;68.60;100435.91;4989225;28;20495;-74
2022/01/31 04:21:48;;;;;;;29.10;3.88;;;;;;;3.35;69.39;100428.47;4989856;28;20121;-75
2022/01/31 04:24:22;;;;;;;21.45;3.25;;;;;;;3.01;70.69;100419.91;4993159;28;20042;-75
2022/01/31 04:26:57;;;;;;;27.27;4.00;;;;;;;3.24;69.98;100407.19;4983237;28;20465;-74
2022/01/31 04:29:24;;;;;;;27.08;3.33;;;;;;;3.38;69.82;100398.16;4988710;28;20146;-75
2022/01/31 04:31:51;;;;;;;20.65;3.70;;;;;;;3.01;70.37;100392.25;4989571;28;20054;-75
2022/01/31 04:34:18;;;;;;;19.73;3.95;;;;;;;2.99;71.23;100383.69;4982569;28;20047;-75
2022/01/31 04:36:45;;;;;;;22.48;4.05;;;;;;;3.02;70.92;100377.56;4984355;28;20491;-75
2022/01/31 04:39:17;;;;;;;31.45;4.88;;;;;;;3.39;69.66;100358.41;4978718;28;20054;-75
2022/01/31 04:41:43;;;;;;;18.13;2.83;;;;;;;2.98;70.73;100355.22;4972418;28;20687;-74
2022/01/31 04:44:10;;;;;;;13.95;3.10;;;;;;;2.88;70.68;100352.88;4990827;28;20549;-74
2022/01/31 04:46:37;;;;;;;27.80;4.80;;;;;;;2.57;72.27;100339.03;4983358;28;20050;-74
2022/01/31 04:49:04;;;;;;;20.00;4.05;;;;;;;2.79;71.47;100339.34;4979173;28;20046;-74
2022/01/31 04:51:30;;;;;;;19.27;3.45;;;;;;;2.69;71.59;100330.97;4998187;28;20050;-75
2022/01/31 04:53:56;;;;;;;17.30;3.72;;;;;;;2.50;72.30;100327.16;5008126;28;20050;-75
2022/01/31 04:56:24;;;;;;;26.90;4.03;;;;;;;2.84;71.31;100317.63;4993632;28;20043;-75
2022/01/31 04:58:50;;;;;;;33.83;4.43;;;;;;;2.96;71.03;100300.06;4988294;28;20050;-75
2022/01/31 05:01:17;;;;;;;27.02;4.55;;;;;;;2.67;71.52;100293.06;4976493;28;20043;-75
2022/01/31 05:03:45;;;;;;;18.35;3.58;;;;;;;2.51;72.31;100277.09;4984471;28;20082;-75
2022/01/31 05:06:14;;;;;;;25.17;4.65;;;;;;;2.94;71.47;100269.88;4981135;28;20130;-74
2022/01/31 05:08:40;;;;;;;24.42;4.45;;;;;;;2.55;72.12;100262.34;4979144;28;20058;-76
2022/01/31 05:11:08;;;;;;;20.67;3.60;;;;;;;2.82;71.67;100241.72;4981196;28;20050;-75
2022/01/31 05:13:37;;;;;;;22.45;3.80;;;;;;;2.66;72.06;100232.66;4982474;28;20137;-75
2022/01/31 05:16:04;;;;;;;20.90;3.50;;;;;;;2.42;72.86;100228.16;4981698;28;20050;-75
2022/01/31 05:18:31;;;;;;;28.02;4.60;;;;;;;2.74;71.98;100228.13;4999625;28;20045;-75
2022/01/31 05:20:57;;;;;;;18.55;2.88;;;;;;;3.02;70.68;100222.19;4991458;28;20101;-74
2022/01/31 05:23:23;;;;;;;25.33;4.72;;;;;;;2.27;72.58;100231.16;4989385;28;20485;-76
2022/01/31 05:25:50;;;;;;;32.78;6.20;;;;;;;2.30;72.84;100218.13;4993253;28;20047;-76
2022/01/31 05:28:16;;;;;;;21.48;4.72;;;;;;;2.54;72.37;100212.31;4989686;28;20046;-75
2022/01/31 05:30:44;;;;;;;25.30;4.75;;;;;;;2.46;72.34;100206.50;4992317;28;20497;-75
2022/01/31 05:33:10;;;;;;;28.70;3.55;;;;;;;2.83;71.11;100191.63;4998338;28;20614;-75
2022/01/31 05:35:37;;;;;;;24.25;5.20;;;;;;;2.64;71.95;100182.69;4990562;28;20108;-75
2022/01/31 05:38:03;;;;;;;19.77;4.45;;;;;;;2.25;72.98;100171.72;4988892;28;20478;-75
2022/01/31 05:40:31;;;;;;;21.30;4.18;;;;;;;2.29;73.25;100156.97;4973989;28;20065;-74
2022/01/31 05:42:57;;;;;;;34.60;4.30;;;;;;;2.37;73.15;100150.66;4989979;28;20081;-75
2022/01/31 05:45:24;;;;;;;21.50;4.45;;;;;;;2.64;72.40;100130.94;4990633;28;20399;-75
2022/01/31 05:47:51;;;;;;;16.35;3.78;;;;;;;2.37;73.42;100134.28;5003175;28;20104;-75
2022/01/31 05:50:18;;;;;;;22.50;3.78;;;;;;;2.53;72.91;100125.22;5008763;28;20045;-74
2022/01/31 05:52:44;;;;;;;24.50;4.20;;;;;;;2.54;72.78;100119.16;5004160;28;20073;-75
2022/01/31 05:55:11;;;;;;;19.20;3.78;;;;;;;2.39;73.77;100101.47;5007848;28;20460;-75
2022/01/31 05:57:37;;;;;;;29.52;4.43;;;;;;;2.12;74.71;100082.41;5008888;28;20046;-75
2022/01/31 06:00:05;;;;;;;31.20;5.68;;;;;;;2.10;74.89;100089.38;5004556;28;20127;-76
2022/01/31 06:02:31;;;;;;;29.02;5.82;;;;;;;2.13;75.10;100088.41;5002305;28;20042;-75
2022/01/31 06:04:59;;;;;;;23.55;4.03;;;;;;;2.66;73.30;100079.13;5008460;28;20042;-75
2022/01/31 06:07:25;;;;;;;22.55;4.43;;;;;;;2.44;73.73;100095.25;4988536;28;20061;-76
2022/01/31 06:09:51;;;;;;;20.50;5.13;;;;;;;2.09;75.06;100086.81;4996143;28;20127;-76
2022/01/31 06:12:18;;;;;;;28.20;4.65;;;;;;;2.51;73.98;100077.84;5008350;28;20104;-75
2022/01/31 06:14:44;;;;;;;24.00;5.30;;;;;;;2.51;74.08;100066.63;4996100;28;20556;-75
2022/01/31 06:17:11;;;;;;;18.27;3.72;;;;;;;2.42;74.07;100070.34;4983895;28;20665;-76
2022/01/31 06:19:37;;;;;;;24.52;4.38;;;;;;;2.23;75.41;100064.00;4979480;28;20051;-76
2022/01/31 06:22:05;;;;;;;11.65;3.42;;;;;;;2.49;74.63;100064.09;4973898;28;20367;-76
2022/01/31 06:24:31;;;;;;;13.93;3.75;;;;;;;2.83;73.15;100058.75;4980007;28;20042;-75
2022/01/31 06:26:58;;;;;;;19.05;3.70;;;;;;;2.75;73.61;100048.63;4981546;28;20109;-75
2022/01/31 06:29:26;;;;;;;23.25;5.65;;;;;;;2.42;74.84;100053.06;4980783;28;20050;-75
2022/01/31 06:31:53;;;;;;;14.63;2.85;;;;;;;2.63;74.32;100040.38;4980640;28;20055;-75
2022/01/31 06:34:19;;;;;;;15.98;3.80;;;;;;;2.66;74.10;100040.31;4987246;28;20054;-75
2022/01/31 06:36:46;;;;;;;17.45;4.00;;;;;;;2.30;75.03;100042.22;4994582;28;20155;-75
2022/01/31 06:39:14;;;;;;;10.65;3.22;;;;;;;2.52;75.22;100032.09;4992006;28;20054;-75
2022/01/31 06:41:40;;;;;;;16.92;3.85;;;;;;;2.48;75.04;100033.91;5005134;28;20046;-75
2022/01/31 06:44:06;;;;;;;17.33;4.53;;;;;;;2.31;75.56;100021.50;4999195;28;20078;-75
2022/01/31 06:46:33;;;;;;;23.15;4.68;;;;;;;2.55;74.84;100025.06;4979695;28;20453;-76
2022/01/31 06:48:59;;;;;;;23.05;5.63;;;;;;;2.57;74.67;100015.53;4983661;28;20490;-66
2022/01/31 06:51:26;;;;;;;18.77;4.65;;;;;;;2.63;74.97;100022.25;4978732;28;20069;-66
2022/01/31 06:53:54;;;;;;;16.30;4.40;;;;;;;2.58;75.49;100014.66;5006568;28;20050;-67
2022/01/31 06:56:29;;;;;;;18.50;5.05;;;;;;;2.77;74.95;100018.34;5004620;28;20048;-67
2022/01/31 06:58:55;;;;;;;18.30;3.83;;;;;;;2.89;74.51;100015.38;5009125;28;20138;-66
2022/01/31 07:01:24;;;;;;;29.42;5.25;;;;;;;3.19;73.58;100007.50;5003831;28;20076;-66
2022/01/31 07:03:51;;;;;;;30.40;6.15;;;;;;;2.89;74.90;100006.75;5008676;28;20056;-65
2022/01/31 07:06:17;;;;;;;27.98;5.43;;;;;;;2.98;75.14;100000.44;4995288;28;20050;-66
2022/01/31 07:08:43;;;;;;;28.23;6.25;;;;;;;2.91;76.25;99992.88;4988265;28;20098;-66
2022/01/31 07:11:15;;;;;;;22.75;5.43;;;;;;;2.00;79.64;99992.22;5000373;28;20046;-66
2022/01/31 07:13:44;;;;;;;30.75;5.60;;;;;;;2.39;79.74;99988.50;4988568;28;20049;-66
2022/01/31 07:16:10;;;;;;;25.70;5.22;;;;;;;1.93;81.90;99991.56;4995577;28;20425;-66
2022/01/31 07:18:37;;;;;;;23.13;5.43;;;;;;;1.74;83.28;99982.63;4994022;28;20200;-66
2022/01/31 07:21:05;;;;;;;21.13;4.97;;;;;;;1.82;83.66;99990.16;5007942;28;20046;-66
2022/01/31 07:23:50;;;;;;;25.88;4.85;;;;;;;1.60;85.36;99979.59;5003096;28;20494;-66
2022/01/31 07:26:17;;;;;;;31.98;6.78;;;;;;;1.47;85.97;99970.47;5003629;28;20049;-66
2022/01/31 07:28:44;;;;;;;26.95;6.72;;;;;;;1.51;86.15;99976.41;4986159;28;20073;-66
2022/01/31 07:31:11;;;;;;;27.13;5.85;;;;;;;1.75;85.90;99967.97;4979005;28;20112;-66
2022/01/31 07:33:38;;;;;;;35.53;5.55;;;;;;;1.52;86.68;99971.19;4979422;28;20078;-67
2022/01/31 07:36:05;;;;;;;27.52;6.53;;;;;;;1.10;89.11;99962.00;4985029;28;20379;-67
2022/01/31 07:38:31;;;;;;;26.88;5.55;;;;;;;1.87;85.83;99952.97;4985368;28;20078;-67
2022/01/31 07:40:59;;;;;;;20.25;5.07;;;;;;;2.25;84.52;99954.44;4987711;28;20128;-66
2022/01/31 07:43:25;;;;;;;23.75;6.10;;;;;;;1.73;86.61;99955.13;4987918;28;20149;-67
2022/01/31 07:45:53;;;;;;;31.98;6.13;;;;;;;2.00;85.46;99945.69;4989645;28;20068;-66
2022/01/31 07:48:20;;;;;;;30.45;5.97;;;;;;;1.70;86.13;99955.19;4981568;28;20466;-65
2022/01/31 07:50:46;;;;;;;30.27;7.25;;;;;;;1.21;88.93;99947.09;4989660;28;20050;-67
2022/01/31 07:53:12;;;;;;;39.20;5.07;;;;;;;1.25;89.37;99952.13;5000728;28;20532;-66
2022/01/31 07:55:39;;;;;;;35.42;7.13;;;;;;;1.41;88.75;99939.63;5003169;28;20050;-66
2022/01/31 07:58:06;;;;;;;18.73;5.68;;;;;;;1.42;88.63;99923.25;5004045;28;20497;-66
2022/01/31 08:00:33;;;;;;;27.83;6.05;;;;;;;1.15;89.71;99921.41;4999342;28;20049;-66
2022/01/31 08:03:01;;;;;;;38.40;7.43;;;;;;;0.95;90.99;99922.78;5007676;28;20504;-66
2022/01/31 08:05:27;;;;;;;26.35;4.90;;;;;;;1.65;88.38;99904.53;4990112;28;20051;-67
2022/01/31 08:07:53;;;;;;;38.00;7.75;;;;;;;1.58;87.87;99903.88;4987503;28;20074;-66
2022/01/31 08:10:20;;;;;;;26.42;5.15;;;;;;;1.15;89.55;99896.44;4995557;28;20062;-66
2022/01/31 08:12:46;;;;;;;39.40;7.78;;;;;;;1.22;90.30;99894.56;4991950;28;20107;-65
2022/01/31 08:15:21;;;;;;;35.13;7.10;;;;;;;1.48;89.31;99882.59;4998906;28;20049;-67
2022/01/31 08:17:48;;;;;;;32.38;8.77;;;;;;;1.44;88.95;99880.16;4987621;28;20058;-66
2022/01/31 08:20:16;;;;;;;36.95;7.43;;;;;;;1.06;90.75;99885.53;4996701;28;20116;-66
2022/01/31 08:22:42;;;;;;;20.80;6.50;;;;;;;1.40;89.13;99865.63;4993214;28;20410;-65
2022/01/31 08:25:14;;;;;;;36.33;7.72;;;;;;;1.48;89.72;99861.06;5009704;28;20131;-66
2022/01/31 08:27:40;;;;;;;25.48;8.23;;;;;;;1.92;87.20;99862.38;4998237;28;20073;-66
2022/01/31 08:30:12;;;;;;;29.25;7.68;;;;;;;1.83;86.74;99855.72;5002076;28;20042;-66
2022/01/31 08:32:44;;;;;;;31.17;6.75;;;;;;;1.51;88.98;99857.56;4998546;28;20082;-67
2022/01/31 08:37:56;;;;;;;26.70;7.82;;;;;;;1.98;87.19;99848.41;4981022;28;20092;-66
2022/01/31 08:40:23;;;;;;;18.02;6.93;;;;;;;1.70;87.96;99851.00;4999249;28;20070;-66
2022/01/31 08:42:50;;;;;;;24.75;8.05;;;;;;;1.43;89.01;99842.28;5005338;28;20073;-66
2022/01/31 08:45:16;;;;;;;22.73;6.18;;;;;;;1.66;89.05;99839.91;5000760;28;20135;-67
2022/01/31 08:47:43;;;;;;;26.30;8.13;;;;;;;1.73;87.81;99843.13;4978038;28;20058;-66
2022/01/31 08:50:10;;;;;;;22.70;8.13;;;;;;;1.73;88.14;99831.06;4999640;28;20123;-66
2022/01/31 08:52:36;;;;;;;27.20;8.27;;;;;;;2.30;85.15;99824.94;5003219;28;20073;-66
2022/01/31 08:55:05;;;;;;;19.17;6.82;;;;;;;1.71;87.63;99825.09;4993173;28;20125;-66
2022/01/31 08:57:31;;;;;;;12.77;6.20;;;;;;;1.34;90.29;99819.31;4993865;28;20101;-66
2022/01/31 09:00:00;;;;;;;20.13;7.75;;;;;;;1.50;89.64;99815.41;5001679;28;20057;-65
2022/01/31 09:02:37;;;;;;;18.27;6.22;;;;;;;2.20;86.31;99810.63;5001899;28;20437;-65
2022/01/31 09:05:04;;;;;;;17.50;6.85;;;;;;;2.60;83.78;99800.63;5000786;28;20045;-65
2022/01/31 09:07:31;;;;;;;20.88;7.53;;;;;;;2.19;85.04;99806.34;4984926;28;20418;-66
2022/01/31 09:09:59;;;;;;;19.88;7.50;;;;;;;1.46;88.91;99808.63;4988399;28;20050;-67
2022/01/31 09:12:30;;;;;;;26.15;7.50;;;;;;;1.50;90.13;99805.06;4988729;28;20062;-66
2022/01/31 09:14:57;;;;;;;14.20;7.05;;;;;;;2.41;85.95;99802.16;4990246;28;20046;-66
2022/01/31 09:17:23;;;;;;;21.50;8.68;;;;;;;2.04;86.22;99799.06;4993437;28;20460;-67
2022/01/31 09:19:50;;;;;;;25.27;8.27;;;;;;;2.03;87.09;99797.41;5004376;28;20446;-66
2022/01/31 09:22:16;;;;;;;21.77;7.15;;;;;;;2.84;83.39;99798.97;5002034;28;20321;-66
2022/01/31 09:24:43;;;;;;;22.60;9.18;;;;;;;1.77;87.23;99799.06;5001020;28;20058;-66
2022/01/31 09:27:11;;;;;;;26.25;8.30;;;;;;;2.15;85.91;99792.66;4982261;28;20361;-66
2022/01/31 09:29:38;;;;;;;23.50;9.40;;;;;;;1.68;88.47;99785.56;5004985;28;20069;-66
2022/01/31 09:32:06;;;;;;;24.70;7.38;;;;;;;1.71;88.34;99786.31;5002674;28;20045;-66
2022/01/31 09:34:32;;;;;;;27.65;10.77;;;;;;;1.64;89.33;99792.56;4998478;28;20089;-66
2022/01/31 09:36:59;;;;;;;20.95;8.43;;;;;;;1.79;88.70;99783.50;4992960;28;20144;-66
2022/01/31 09:39:26;;;;;;;22.30;9.43;;;;;;;1.81;88.98;99790.28;4985173;28;20471;-66
2022/01/31 09:41:55;;;;;;;26.67;9.60;;;;;;;1.98;89.26;99782.03;4999547;28;20390;-67
2022/01/31 09:44:27;;;;;;;25.13;9.85;;;;;;;1.77;89.51;99780.97;5000868;28;20097;-66
2022/01/31 09:47:07;;;;;;;22.98;8.82;;;;;;;2.19;87.98;99777.88;4991283;28;20046;-66
2022/01/31 09:49:33;;;;;;;12.45;5.15;;;;;;;2.74;85.68;99777.72;4976958;28;20506;-66
2022/01/31 09:51:59;;;;;;;22.02;8.07;;;;;;;1.98;87.98;99781.19;4982777;28;20054;-67
2022/01/31 09:54:27;;;;;;;23.15;7.72;;;;;;;2.06;88.89;99772.28;4988452;28;20074;-68
2022/01/31 09:56:54;;;;;;;28.70;9.73;;;;;;;1.70;89.96;99779.44;4979034;28;20133;-67
2022/01/31 09:59:21;;;;;;;17.80;7.57;;;;;;;2.27;88.56;99768.13;4987741;28;20105;-68
2022/01/31 10:01:52;;;;;;;22.33;7.95;;;;;;;2.49;87.06;99769.09;4988820;28;20116;-67
2022/01/31 10:04:21;;;;;;;17.15;7.10;;;;;;;2.94;84.56;99761.47;4981510;28;20455;-67
2022/01/31 10:06:50;;;;;;;23.10;8.10;;;;;;;2.45;86.60;99762.34;4985652;28;20495;-67
2022/01/31 10:09:18;;;;;;;18.30;8.85;;;;;;;2.13;88.23;99770.34;4994286;28;20038;-68
2022/01/31 10:11:49;;;;;;;19.92;8.45;;;;;;;1.68;90.40;99770.91;4997136;28;20406;-67
2022/01/31 10:17:08;;;;;;;20.27;9.10;;;;;;;2.11;89.35;99767.78;4989603;28;20505;-67
2022/01/31 10:19:44;;;;;;;22.58;8.02;;;;;;;2.79;86.24;99770.63;4991756;28;20100;-69
2022/01/31 10:22:13;;;;;;;17.40;6.65;;;;;;;2.66;85.59;99774.53;5006787;28;20050;-68
2022/01/31 10:24:41;;;;;;;22.98;8.57;;;;;;;2.28;88.17;99775.88;4996318;28;20046;-68
2022/01/31 10:27:10;;;;;;;16.05;7.15;;;;;;;2.57;88.06;99769.69;4996760;28;20046;-67
2022/01/31 10:29:37;;;;;;;20.15;8.50;;;;;;;2.16;88.72;99772.81;4994611;28;20439;-69
2022/01/31 10:32:07;;;;;;;16.10;7.72;;;;;;;2.70;86.59;99773.53;5000743;28;20084;-67
2022/01/31 10:34:35;;;;;;;16.67;7.60;;;;;;;2.75;86.58;99760.44;4978327;28;20058;-67
2022/01/31 10:37:08;;;;;;;19.60;7.78;;;;;;;2.59;87.29;99773.06;4984341;28;20062;-67
2022/01/31 10:45:29;;;;;;;16.70;8.63;;;;;;;2.47;87.97;99770.06;4999032;28;20058;-67
2022/01/31 10:51:17;;;;;;;13.57;6.50;;;;;;;2.96;87.58;99770.03;4991919;28;20529;-67
2022/01/31 10:53:50;;;;;;;14.40;6.72;;;;;;;3.06;87.15;99755.00;4980427;28;20050;-68
2022/01/31 10:56:17;;;;;;;;;;;;;;;3.48;85.12;99757.72;5005722;28;20049;-66
2022/01/31 10:58:57;;;;;;;13.82;6.28;;;;;;;2.69;88.30;99764.09;5000181;28;19953;-67
2022/01/31 11:01:25;;;;;;;13.00;5.93;;;;;;;3.11;87.23;99766.03;4993499;28;20101;-65
2022/01/31 11:03:52;;;;;;;13.30;6.47;;;;;;;3.48;84.71;99771.53;4999500;28;20486;-67
2022/01/31 11:06:20;;;;;;;11.55;6.78;;;;;;;2.83;86.65;99772.22;5003570;28;20050;-67
2022/01/31 11:08:48;;;;;;;15.20;6.95;;;;;;;3.16;85.69;99785.69;4989049;28;20059;-66
2022/01/31 11:11:14;;;;;;;13.25;6.57;;;;;;;3.24;85.72;99775.91;4974601;28;20042;-66
2022/01/31 11:13:41;;;;;;;14.63;6.90;;;;;;;2.92;86.78;99774.47;4985014;28;20078;-67
2022/01/31 11:16:10;;;;;;;14.60;6.85;;;;;;;2.68;86.94;99788.28;4980009;28;20043;-67
2022/01/31 11:18:37;;;;;;;17.15;6.85;;;;;;;3.42;86.53;99782.13;4969064;28;20075;-66
2022/01/31 11:21:05;;;;;;;12.27;6.18;;;;;;;4.13;83.22;99787.09;4972320;28;20049;-66
2022/01/31 11:23:37;;;;;;;13.15;7.28;;;;;;;4.12;81.65;99785.41;4991211;28;20222;-65
2022/01/31 11:26:08;;;;;;;17.00;6.95;;;;;;;4.22;82.29;99785.88;4974874;28;20109;-66
2022/01/31 11:28:36;;;;;;;18.65;7.40;;;;;;;3.32;85.00;99776.47;4979726;28;20108;-66
2022/01/31 11:31:03;;;;;;;11.65;6.35;;;;;;;3.35;85.27;99771.16;4987395;28;20059;-66
2022/01/31 11:33:31;;;;;;;12.10;5.60;;;;;;;3.76;84.00;99779.09;4978184;28;20557;-67
2022/01/31 11:35:59;;;;;;;10.25;4.95;;;;;;;4.21;81.51;99779.81;4993850;28;20069;-67
2022/01/31 11:38:26;;;;;;;13.15;5.85;;;;;;;3.95;82.50;99781.81;5003732;28;20158;-67
2022/01/31 11:40:53;;;;;;;11.38;6.00;;;;;;;4.31;81.17;99775.97;4996730;28;20100;-66
2022/01/31 11:43:22;;;;;;;12.75;6.38;;;;;;;3.18;85.07;99783.06;5002745;28;20041;-66
2022/01/31 11:45:52;;;;;;;10.68;6.00;;;;;;;3.39;85.67;99782.25;4982758;28;20557;-67